Isabella — 9HSL7 — position and weather

sailwx.info

Track history (hours):
 
Tides and Currents Weather Stations Pressure Air Temp Water Temp Dewpoint Dewpoint Depression Visibility Wind Speed Wind Dir Waves Ship Positions

Isabella

Last reported at 2015-Jul-05 07:30 UTC. Time now 2015-Jul-06 17:51 UTC.
Position N 37°47' E 025°46'.

Length 244 m; draft 8 m.

Type: Tanker. MMSI: 215545000.

Date/timePositionNaut miles runAvg speedWind from/ knotsBaromVisibWave heightAir tempDewpointWater temp
2015-Jul-05 07:30N 37°47' E 025°46'8 8.8
2015-Jul-05 06:33N 37°39' E 025°47'9 9.1
2015-Jul-05 05:33N 37°30' E 025°49'9 8.7
2015-Jul-05 04:34N 37°22' E 025°54'10 8.7
2015-Jul-05 03:23N 37°13' E 026°01'8 9.6
2015-Jul-05 02:30N 37°06' E 026°06'10 9.7
2015-Jul-05 01:31N 36°58' E 026°12'9 9.4
2015-Jul-05 00:33N 36°51' E 026°20'9 8.9
2015-Jul-04 23:33N 36°44' E 026°27'11 8.8
2015-Jul-04 22:19N 36°36' E 026°36'7 8.6
2015-Jul-04 21:33N 36°32' E 026°42'9 9.0
2015-Jul-04 20:33N 36°25' E 026°50'201 9.2
2015-Jul-03 22:33N 34°20' E 030°03'10 9.7
2015-Jul-03 21:33N 34°15' E 030°13'10 9.6
2015-Jul-03 20:33N 34°09' E 030°23'10 9.7
2015-Jul-03 19:33N 34°03' E 030°32'10 9.9
2015-Jul-03 18:33N 33°57' E 030°42'10 9.8
2015-Jul-03 17:33N 33°51' E 030°50'11 9.6
2015-Jul-03 16:24N 33°44' E 031°00'8 9.4
2015-Jul-03 15:32N 33°38' E 031°08'9 9.2
2015-Jul-03 14:33N 33°32' E 031°15'  
2015-Jun-27 17:10N 36°25' E 035°24'6 9.6
2015-Jun-27 16:32N 36°23' E 035°17'365 9.3
2015-Jun-26 01:29N 35°44' E 027°48'1010.6
2015-Jun-26 00:32N 35°50' E 027°39'1111.1
2015-Jun-25 23:33N 35°57' E 027°28'5310.5
2015-Jun-25 18:30N 36°11' E 026°24'1010.2
2015-Jun-25 17:31N 36°10' E 026°12'1110.4
2015-Jun-25 16:30N 36°11' E 025°59'1010.3
2015-Jun-25 15:33N 36°10' E 025°47'1010.0
2015-Jun-25 14:31N 36°10' E 025°34'10 9.9
2015-Jun-25 13:33N 36°09' E 025°22'1210.0
2015-Jun-25 12:22N 36°09' E 025°07'810.1
2015-Jun-25 11:33N 36°08' E 024°57'2210.5
2015-Jun-25 09:24N 36°07' E 024°29'18 9.9
2015-Jun-25 07:33N 36°06' E 024°07'  
Track history (hours):
 
Tides and Currents Weather Stations Pressure Air Temp Water Temp Dewpoint Dewpoint Depression Visibility Wind Speed Wind Dir Waves Ship Positions

Isabella

Last reported at 2015-Jul-05 07:30 UTC. Time now 2015-Jul-06 17:51 UTC.
Position N 37°47' E 025°46'.

Length 244 m; draft 8 m.

Type: Tanker. MMSI: 215545000.

Date/timePositionNaut miles runAvg speedWind from/ knotsBaromVisibWave heightAir tempDewpointWater temp
2015-Jul-05 07:30N 37°47' E 025°46'8 8.8
2015-Jul-05 06:33N 37°39' E 025°47'9 9.1
2015-Jul-05 05:33N 37°30' E 025°49'9 8.7
2015-Jul-05 04:34N 37°22' E 025°54'10 8.7
2015-Jul-05 03:23N 37°13' E 026°01'8 9.6
2015-Jul-05 02:30N 37°06' E 026°06'10 9.7
2015-Jul-05 01:31N 36°58' E 026°12'9 9.4
2015-Jul-05 00:33N 36°51' E 026°20'9 8.9
2015-Jul-04 23:33N 36°44' E 026°27'11 8.8
2015-Jul-04 22:19N 36°36' E 026°36'7 8.6
2015-Jul-04 21:33N 36°32' E 026°42'9 9.0
2015-Jul-04 20:33N 36°25' E 026°50'201 9.2
2015-Jul-03 22:33N 34°20' E 030°03'10 9.7
2015-Jul-03 21:33N 34°15' E 030°13'10 9.6
2015-Jul-03 20:33N 34°09' E 030°23'10 9.7
2015-Jul-03 19:33N 34°03' E 030°32'10 9.9
2015-Jul-03 18:33N 33°57' E 030°42'10 9.8
2015-Jul-03 17:33N 33°51' E 030°50'11 9.6
2015-Jul-03 16:24N 33°44' E 031°00'8 9.4
2015-Jul-03 15:32N 33°38' E 031°08'9 9.2
2015-Jul-03 14:33N 33°32' E 031°15'  
2015-Jun-27 17:10N 36°25' E 035°24'6 9.6
2015-Jun-27 16:32N 36°23' E 035°17'365 9.3
2015-Jun-26 01:29N 35°44' E 027°48'1010.6
2015-Jun-26 00:32N 35°50' E 027°39'1111.1
2015-Jun-25 23:33N 35°57' E 027°28'5310.5
2015-Jun-25 18:30N 36°11' E 026°24'1010.2
2015-Jun-25 17:31N 36°10' E 026°12'1110.4
2015-Jun-25 16:30N 36°11' E 025°59'1010.3
2015-Jun-25 15:33N 36°10' E 025°47'1010.0
2015-Jun-25 14:31N 36°10' E 025°34'10 9.9
2015-Jun-25 13:33N 36°09' E 025°22'1210.0
2015-Jun-25 12:22N 36°09' E 025°07'810.1
2015-Jun-25 11:33N 36°08' E 024°57'2210.5
2015-Jun-25 09:24N 36°07' E 024°29'18 9.9
2015-Jun-25 07:33N 36°06' E 024°07'  

Dump ship's entire track history